LHA2542 LCPH-EDDP
Flight info
| Callsign | LHA2542 |
|---|---|
| Flight time | N/A |
| Altitude | 32000 |
| Route | GENOS DCT PEDER DCT EVENO UM601 EXELA UN127 LMO UN128 PEREN UL863 EVIVI L863 OKANA DCT PARAK DCT PATAK DCT LALES DCT BEFRE DCT IVQOQ T951 YAWOY |
| Aircraft | A319/M-SDE1E2FGIRWYZ/S |
Departure
| Time | 2026-04-23 10:11 |
|---|---|
| Airport | Paphos International Airport (LCPH) |
Arrival
| Time | N/A |
|---|---|
| Airport | Leipzig/Halle Airport (EDDP) |
| Time | Latitude | Longitude | Altitude | Speed | Heading |
|---|---|---|---|---|---|
| 2026-04-23 09:53 | 34.71394 | 32.48461 | 29 ft | 0 kts | 102° |
| 2026-04-23 10:08 | 34.71393 | 32.48465 | 29 ft | 0 kts | 102° |
| 2026-04-23 10:08 | 34.71382 | 32.48486 | 29 ft | 6 kts | 129° |
| 2026-04-23 10:09 | 34.71400 | 32.48681 | 28 ft | 18 kts | 64° |
| 2026-04-23 10:09 | 34.71456 | 32.48828 | 31 ft | 18 kts | 65° |
| 2026-04-23 10:09 | 34.71516 | 32.48953 | 36 ft | 15 kts | 44° |
| 2026-04-23 10:09 | 34.71600 | 32.49013 | 38 ft | 13 kts | 26° |
| 2026-04-23 10:10 | 34.71661 | 32.48997 | 38 ft | 0 kts | 290° |
| 2026-04-23 10:10 | 34.71662 | 32.48993 | 38 ft | 0 kts | 290° |
| 2026-04-23 10:10 | 34.71662 | 32.48992 | 38 ft | 0 kts | 290° |
| 2026-04-23 10:10 | 34.71735 | 32.48734 | 40 ft | 70 kts | 289° |
| 2026-04-23 10:11 | 34.71985 | 32.47915 | 47 ft | 134 kts | 289° |
| 2026-04-23 10:11 | 34.72351 | 32.46746 | 507 ft | 147 kts | 293° |
| 2026-04-23 10:11 | 34.72729 | 32.45613 | 1149 ft | 147 kts | 288° |
| 2026-04-23 10:11 | 34.73082 | 32.44423 | 1662 ft | 158 kts | 287° |
| 2026-04-23 10:12 | 34.73462 | 32.43092 | 2083 ft | 179 kts | 286° |
| 2026-04-23 10:12 | 34.73607 | 32.41555 | 2552 ft | 195 kts | 254° |
| 2026-04-23 10:12 | 34.72806 | 32.40154 | 3067 ft | 215 kts | 220° |
| 2026-04-23 10:12 | 34.71605 | 32.38981 | 3592 ft | 232 kts | 221° |
| 2026-04-23 10:13 | 34.70443 | 32.37552 | 4075 ft | 249 kts | 239° |
| 2026-04-23 10:13 | 34.69892 | 32.35539 | 4679 ft | 260 kts | 263° |
| 2026-04-23 10:13 | 34.69790 | 32.33349 | 5529 ft | 263 kts | 269° |
| 2026-04-23 10:13 | 34.69760 | 32.31130 | 6363 ft | 266 kts | 269° |
| 2026-04-23 10:14 | 34.69717 | 32.28887 | 7183 ft | 270 kts | 269° |
| 2026-04-23 10:14 | 34.69648 | 32.26613 | 7983 ft | 273 kts | 268° |
| 2026-04-23 10:14 | 34.69558 | 32.24300 | 8777 ft | 276 kts | 267° |
| 2026-04-23 10:14 | 34.69460 | 32.21986 | 9554 ft | 279 kts | 267° |
| 2026-04-23 10:15 | 34.69349 | 32.19620 | 10302 ft | 283 kts | 267° |
| 2026-04-23 10:15 | 34.69236 | 32.17199 | 10763 ft | 298 kts | 267° |
| 2026-04-23 10:15 | 34.69112 | 32.14585 | 11091 ft | 316 kts | 267° |
| 2026-04-23 10:15 | 34.68980 | 32.11856 | 11398 ft | 334 kts | 267° |
| 2026-04-23 10:16 | 34.68838 | 32.08979 | 11871 ft | 345 kts | 267° |
| 2026-04-23 10:16 | 34.68694 | 32.06081 | 12575 ft | 348 kts | 267° |
| 2026-04-23 10:16 | 34.68549 | 32.03174 | 13307 ft | 349 kts | 267° |
| 2026-04-23 10:16 | 34.68401 | 32.00243 | 14012 ft | 351 kts | 267° |
| 2026-04-23 10:17 | 34.68251 | 31.97258 | 14709 ft | 352 kts | 267° |
| 2026-04-23 10:17 | 34.68103 | 31.94299 | 15376 ft | 354 kts | 268° |
| 2026-04-23 10:17 | 34.68198 | 31.91332 | 16003 ft | 356 kts | 279° |
| 2026-04-23 10:17 | 34.68843 | 31.88446 | 16633 ft | 357 kts | 291° |
| 2026-04-23 10:18 | 34.69976 | 31.85747 | 17259 ft | 360 kts | 299° |
| 2026-04-23 10:18 | 34.71236 | 31.83155 | 17843 ft | 362 kts | 300° |
| 2026-04-23 10:18 | 34.72535 | 31.80526 | 18411 ft | 364 kts | 300° |
| 2026-04-23 10:18 | 34.73839 | 31.77881 | 18966 ft | 366 kts | 299° |
| 2026-04-23 10:19 | 34.75133 | 31.75243 | 19502 ft | 367 kts | 299° |
| 2026-04-23 10:19 | 34.76448 | 31.72555 | 20024 ft | 369 kts | 299° |
| 2026-04-23 10:19 | 34.77751 | 31.69883 | 20533 ft | 371 kts | 299° |
| 2026-04-23 10:19 | 34.79059 | 31.67196 | 21030 ft | 373 kts | 299° |
| 2026-04-23 10:20 | 34.80385 | 31.64467 | 21512 ft | 375 kts | 298° |
| 2026-04-23 10:20 | 34.81708 | 31.61740 | 21981 ft | 377 kts | 298° |
| 2026-04-23 10:20 | 34.83045 | 31.58983 | 22440 ft | 378 kts | 298° |
| 2026-04-23 10:20 | 34.84370 | 31.56247 | 22880 ft | 380 kts | 298° |
| 2026-04-23 10:21 | 34.85716 | 31.53466 | 23311 ft | 382 kts | 298° |
| 2026-04-23 10:21 | 34.87054 | 31.50701 | 23722 ft | 384 kts | 298° |
| 2026-04-23 10:21 | 34.88415 | 31.47884 | 24135 ft | 385 kts | 298° |
| 2026-04-23 10:21 | 34.89763 | 31.45093 | 24500 ft | 388 kts | 298° |
| 2026-04-23 10:22 | 34.91143 | 31.42232 | 24808 ft | 392 kts | 297° |
| 2026-04-23 10:22 | 34.92522 | 31.39369 | 25090 ft | 397 kts | 297° |
| 2026-04-23 10:22 | 34.93916 | 31.36473 | 25367 ft | 401 kts | 297° |
| 2026-04-23 10:22 | 34.95334 | 31.33524 | 25642 ft | 405 kts | 297° |
| 2026-04-23 10:23 | 34.96779 | 31.30516 | 25919 ft | 410 kts | 297° |
| 2026-04-23 10:23 | 34.98219 | 31.27516 | 26185 ft | 414 kts | 297° |
| 2026-04-23 10:23 | 34.99667 | 31.24497 | 26444 ft | 419 kts | 297° |
| 2026-04-23 10:23 | 35.01133 | 31.21436 | 26692 ft | 423 kts | 297° |
| 2026-04-23 10:24 | 35.02631 | 31.18308 | 26937 ft | 427 kts | 297° |
| 2026-04-23 10:24 | 35.04134 | 31.15166 | 27195 ft | 431 kts | 298° |
| 2026-04-23 10:24 | 35.05648 | 31.12003 | 27463 ft | 435 kts | 298° |
| 2026-04-23 10:24 | 35.07171 | 31.08820 | 27766 ft | 437 kts | 298° |
| 2026-04-23 10:25 | 35.08699 | 31.05623 | 28081 ft | 438 kts | 297° |
| 2026-04-23 10:25 | 35.10239 | 31.02395 | 28382 ft | 440 kts | 297° |
| 2026-04-23 10:25 | 35.11777 | 30.99166 | 28727 ft | 441 kts | 297° |
| 2026-04-23 10:25 | 35.13314 | 30.95937 | 29141 ft | 439 kts | 297° |
| 2026-04-23 10:26 | 35.14848 | 30.92716 | 29544 ft | 438 kts | 298° |
| 2026-04-23 10:26 | 35.16459 | 30.89572 | 29926 ft | 439 kts | 301° |
| 2026-04-23 10:26 | 35.18206 | 30.86536 | 30280 ft | 440 kts | 304° |
| 2026-04-23 10:26 | 35.20096 | 30.83612 | 30574 ft | 442 kts | 307° |
| 2026-04-23 10:27 | 35.22118 | 30.80814 | 30831 ft | 445 kts | 310° |
| 2026-04-23 10:27 | 35.24225 | 30.78044 | 31103 ft | 446 kts | 310° |
| 2026-04-23 10:27 | 35.26360 | 30.75261 | 31372 ft | 447 kts | 310° |
| 2026-04-23 10:27 | 35.28471 | 30.72512 | 31611 ft | 448 kts | 310° |
| 2026-04-23 10:28 | 35.30588 | 30.69749 | 31841 ft | 449 kts | 310° |
| 2026-04-23 10:28 | 35.32717 | 30.66965 | 31936 ft | 451 kts | 310° |
| 2026-04-23 10:28 | 35.36988 | 30.61371 | 31942 ft | 451 kts | 310° |
| 2026-04-23 10:29 | 35.41271 | 30.55747 | 31943 ft | 451 kts | 310° |
| 2026-04-23 10:29 | 35.45520 | 30.50155 | 31943 ft | 451 kts | 310° |
| 2026-04-23 10:30 | 35.49788 | 30.44530 | 31943 ft | 451 kts | 310° |
| 2026-04-23 10:30 | 35.54049 | 30.38907 | 31943 ft | 451 kts | 310° |
| 2026-04-23 10:31 | 35.58324 | 30.33254 | 31944 ft | 451 kts | 309° |
| 2026-04-23 10:31 | 35.62579 | 30.27618 | 31943 ft | 451 kts | 309° |
| 2026-04-23 10:32 | 35.66859 | 30.21938 | 31943 ft | 461 kts | 310° |
| 2026-04-23 10:32 | 35.71215 | 30.16153 | 31944 ft | 463 kts | 310° |
| 2026-04-23 10:33 | 35.75593 | 30.10326 | 31943 ft | 463 kts | 310° |
| 2026-04-23 10:33 | 35.79707 | 30.04307 | 31943 ft | 460 kts | 303° |
| 2026-04-23 10:34 | 35.83125 | 29.97730 | 31943 ft | 457 kts | 296° |
| 2026-04-23 10:34 | 35.85799 | 29.90674 | 31943 ft | 454 kts | 288° |
| 2026-04-23 10:35 | 35.87862 | 29.83334 | 31943 ft | 453 kts | 286° |
| 2026-04-23 10:35 | 35.89835 | 29.75999 | 31943 ft | 453 kts | 286° |
| 2026-04-23 10:36 | 35.91829 | 29.68610 | 31943 ft | 453 kts | 286° |
| 2026-04-23 10:36 | 35.94111 | 29.61412 | 31942 ft | 456 kts | 294° |
| 2026-04-23 10:37 | 35.97390 | 29.54672 | 31943 ft | 460 kts | 303° |
| 2026-04-23 10:37 | 36.01607 | 29.48724 | 31942 ft | 465 kts | 314° |
| 2026-04-23 10:38 | 36.06502 | 29.43573 | 31943 ft | 466 kts | 318° |
| 2026-04-23 10:38 | 36.11553 | 29.38524 | 31942 ft | 467 kts | 318° |
| 2026-04-23 10:39 | 36.16570 | 29.33457 | 31944 ft | 466 kts | 317° |
| 2026-04-23 10:39 | 36.21530 | 29.28349 | 31943 ft | 466 kts | 316° |
| 2026-04-23 10:40 | 36.26458 | 29.23160 | 31943 ft | 466 kts | 316° |
| 2026-04-23 10:40 | 36.31380 | 29.17982 | 31943 ft | 466 kts | 316° |
| 2026-04-23 10:41 | 36.36302 | 29.12804 | 31943 ft | 466 kts | 316° |
| 2026-04-23 10:41 | 36.41235 | 29.07604 | 31943 ft | 466 kts | 316° |
| 2026-04-23 10:42 | 36.46164 | 29.02401 | 31944 ft | 466 kts | 316° |
| 2026-04-23 10:42 | 36.51082 | 28.97200 | 31944 ft | 463 kts | 317° |
| 2026-04-23 10:43 | 36.55944 | 28.92049 | 31944 ft | 460 kts | 317° |
| 2026-04-23 10:43 | 36.60783 | 28.86915 | 31944 ft | 458 kts | 317° |
| 2026-04-23 10:44 | 36.65723 | 28.81664 | 31944 ft | 455 kts | 317° |
| 2026-04-23 10:44 | 36.70509 | 28.76573 | 31944 ft | 454 kts | 317° |
| 2026-04-23 10:45 | 36.75291 | 28.71507 | 31943 ft | 453 kts | 317° |
| 2026-04-23 10:45 | 36.80098 | 28.66408 | 31943 ft | 453 kts | 317° |
| 2026-04-23 10:46 | 36.84884 | 28.61321 | 31943 ft | 453 kts | 317° |
| 2026-04-23 10:46 | 36.89681 | 28.56213 | 31943 ft | 454 kts | 317° |
| 2026-04-23 10:47 | 36.94446 | 28.51131 | 31943 ft | 454 kts | 317° |
| 2026-04-23 10:47 | 36.99253 | 28.45995 | 31942 ft | 454 kts | 317° |
| 2026-04-23 10:48 | 37.04012 | 28.40904 | 31942 ft | 454 kts | 317° |
| 2026-04-23 10:48 | 37.08782 | 28.35786 | 31942 ft | 454 kts | 316° |
| 2026-04-23 10:49 | 37.13568 | 28.30598 | 31942 ft | 453 kts | 316° |
| 2026-04-23 10:49 | 37.18314 | 28.25456 | 31942 ft | 453 kts | 316° |
| 2026-04-23 10:50 | 37.23098 | 28.20303 | 31942 ft | 453 kts | 316° |
| 2026-04-23 10:50 | 37.27851 | 28.15174 | 31942 ft | 453 kts | 316° |
| 2026-04-23 10:51 | 37.32624 | 28.10000 | 31942 ft | 453 kts | 316° |
| 2026-04-23 10:51 | 37.37349 | 28.04841 | 31943 ft | 453 kts | 316° |
| 2026-04-23 10:52 | 37.42111 | 27.99634 | 31942 ft | 453 kts | 316° |
| 2026-04-23 10:52 | 37.46864 | 27.94430 | 31942 ft | 453 kts | 316° |
| 2026-04-23 10:53 | 37.51582 | 27.89256 | 31943 ft | 453 kts | 316° |
| 2026-04-23 10:53 | 37.56321 | 27.84051 | 31942 ft | 453 kts | 316° |
| 2026-04-23 10:54 | 37.61034 | 27.78864 | 31942 ft | 453 kts | 316° |
| 2026-04-23 10:54 | 37.65794 | 27.73618 | 31942 ft | 453 kts | 316° |
| 2026-04-23 10:55 | 37.70512 | 27.68408 | 31942 ft | 453 kts | 316° |
| 2026-04-23 10:55 | 37.75232 | 27.63187 | 31942 ft | 453 kts | 316° |
| 2026-04-23 10:56 | 37.79970 | 27.57938 | 31942 ft | 453 kts | 316° |
| 2026-04-23 10:56 | 37.84681 | 27.52709 | 31943 ft | 453 kts | 316° |
| 2026-04-23 10:57 | 37.89377 | 27.47490 | 31945 ft | 453 kts | 316° |
| 2026-04-23 10:57 | 37.94126 | 27.42275 | 31949 ft | 453 kts | 316° |
| 2026-04-23 10:58 | 37.98898 | 27.37042 | 31956 ft | 453 kts | 316° |
| 2026-04-23 10:58 | 38.02695 | 27.32869 | 31961 ft | 453 kts | 316° |
| 2026-04-23 10:59 | 38.07415 | 27.27669 | 31965 ft | 452 kts | 316° |
| 2026-04-23 10:59 | 38.12149 | 27.22445 | 31967 ft | 452 kts | 316° |
| 2026-04-23 11:00 | 38.16882 | 27.17212 | 31968 ft | 452 kts | 316° |
| 2026-04-23 11:00 | 38.21658 | 27.11922 | 31968 ft | 452 kts | 316° |
| 2026-04-23 11:01 | 38.26366 | 27.06697 | 31968 ft | 452 kts | 316° |
| 2026-04-23 11:01 | 38.31107 | 27.01426 | 31968 ft | 451 kts | 316° |
| 2026-04-23 11:02 | 38.35827 | 26.96204 | 31968 ft | 451 kts | 316° |
| 2026-04-23 11:02 | 38.40538 | 26.91006 | 31968 ft | 450 kts | 316° |
| 2026-04-23 11:03 | 38.45255 | 26.85791 | 31968 ft | 450 kts | 316° |
| 2026-04-23 11:03 | 38.49961 | 26.80578 | 31971 ft | 450 kts | 316° |
| 2026-04-23 11:04 | 38.54685 | 26.75335 | 31978 ft | 450 kts | 316° |
| 2026-04-23 11:04 | 38.59383 | 26.70111 | 31989 ft | 450 kts | 316° |
| 2026-04-23 11:05 | 38.64083 | 26.64875 | 32003 ft | 450 kts | 316° |
| 2026-04-23 11:05 | 38.68789 | 26.59622 | 32013 ft | 450 kts | 316° |
| 2026-04-23 11:06 | 38.75842 | 26.51733 | 32020 ft | 449 kts | 316° |
| 2026-04-23 11:07 | 38.80534 | 26.46473 | 32022 ft | 449 kts | 316° |
| 2026-04-23 11:07 | 38.85239 | 26.41251 | 32022 ft | 450 kts | 318° |